EWG585 EDDL-ESGG
Flight info
| Callsign | EWG585 |
|---|---|
| Flight time | 1h 21m |
| Altitude | 37000 |
| Route | MEVEL4T MEVEL Y850 BASUM DCT DOSUR DCT KUVUS N607 MAKUR |
| Aircraft | A320/M-SDE3FGHIRWY/LB1 |
Departure
| Time | 2026-05-04 17:29 |
|---|---|
| Airport | Düsseldorf Airport (EDDL) |
Arrival
| Time | 2026-05-04 18:51 |
|---|---|
| Airport | Göteborg Landvetter Airport (ESGG) |
| Time | Latitude | Longitude | Altitude | Speed | Heading |
|---|---|---|---|---|---|
| 2026-05-04 16:52 | 51.28489 | 6.77057 | 129 ft | 0 kts | 323° |
| 2026-05-04 16:53 | 51.28617 | 6.77327 | 128 ft | 0 kts | 322° |
| 2026-05-04 16:58 | 51.28616 | 6.77327 | 128 ft | 0 kts | 322° |
| 2026-05-04 17:00 | 51.28616 | 6.77328 | 128 ft | 0 kts | 322° |
| 2026-05-04 17:14 | 51.28609 | 6.77337 | 124 ft | 4 kts | 323° |
| 2026-05-04 17:14 | 51.28561 | 6.77372 | 128 ft | 4 kts | 5° |
| 2026-05-04 17:15 | 51.28543 | 6.77361 | 129 ft | 1 kts | 52° |
| 2026-05-04 17:15 | 51.28540 | 6.77355 | 129 ft | 0 kts | 52° |
| 2026-05-04 17:18 | 51.28566 | 6.77409 | 129 ft | 5 kts | 52° |
| 2026-05-04 17:19 | 51.28603 | 6.77487 | 129 ft | 3 kts | 52° |
| 2026-05-04 17:19 | 51.28637 | 6.77557 | 129 ft | 7 kts | 52° |
| 2026-05-04 17:20 | 51.28662 | 6.77690 | 129 ft | 8 kts | 94° |
| 2026-05-04 17:20 | 51.28734 | 6.77856 | 129 ft | 9 kts | 28° |
| 2026-05-04 17:20 | 51.28787 | 6.77834 | 128 ft | 8 kts | 322° |
| 2026-05-04 17:21 | 51.28878 | 6.77722 | 128 ft | 8 kts | 324° |
| 2026-05-04 17:21 | 51.28962 | 6.77768 | 130 ft | 12 kts | 52° |
| 2026-05-04 17:22 | 51.29025 | 6.77900 | 130 ft | 18 kts | 53° |
| 2026-05-04 17:22 | 51.29108 | 6.78073 | 132 ft | 20 kts | 52° |
| 2026-05-04 17:23 | 51.29308 | 6.78494 | 148 ft | 9 kts | 51° |
| 2026-05-04 17:23 | 51.29337 | 6.78542 | 150 ft | 3 kts | 40° |
| 2026-05-04 17:23 | 51.29339 | 6.78544 | 151 ft | 0 kts | 38° |
| 2026-05-04 17:24 | 51.29411 | 6.78570 | 152 ft | 3 kts | 356° |
| 2026-05-04 17:25 | 51.29425 | 6.78569 | 152 ft | 3 kts | 355° |
| 2026-05-04 17:25 | 51.29432 | 6.78568 | 152 ft | 0 kts | 355° |
| 2026-05-04 17:27 | 51.29504 | 6.78541 | 151 ft | 10 kts | 326° |
| 2026-05-04 17:27 | 51.29488 | 6.78405 | 149 ft | 0 kts | 232° |
| 2026-05-04 17:28 | 51.29483 | 6.78394 | 148 ft | 11 kts | 232° |
| 2026-05-04 17:29 | 51.28063 | 6.75422 | 444 ft | 170 kts | 233° |
| 2026-05-04 17:29 | 51.26640 | 6.70005 | 2175 ft | 204 kts | 288° |
| 2026-05-04 17:30 | 51.30296 | 6.68183 | 4126 ft | 223 kts | 18° |
| 2026-05-04 17:31 | 51.33643 | 6.69346 | 4908 ft | 269 kts | 4° |
| 2026-05-04 17:31 | 51.39459 | 6.69750 | 7418 ft | 286 kts | 0° |
| 2026-05-04 17:32 | 51.43505 | 6.69698 | 9038 ft | 295 kts | 359° |
| 2026-05-04 17:33 | 51.49931 | 6.69602 | 10528 ft | 335 kts | 359° |
| 2026-05-04 17:33 | 51.52307 | 6.69596 | 10975 ft | 346 kts | 359° |
| 2026-05-04 17:34 | 51.59646 | 6.70240 | 12776 ft | 360 kts | 16° |
| 2026-05-04 17:34 | 51.61961 | 6.71828 | 13332 ft | 364 kts | 30° |
| 2026-05-04 17:35 | 51.67158 | 6.80809 | 14867 ft | 373 kts | 53° |
| 2026-05-04 17:35 | 51.70247 | 6.87546 | 15794 ft | 379 kts | 53° |
| 2026-05-04 17:35 | 51.71820 | 6.90978 | 16236 ft | 382 kts | 53° |
| 2026-05-04 17:36 | 51.73406 | 6.94439 | 16662 ft | 385 kts | 53° |
| 2026-05-04 17:36 | 51.75002 | 6.97926 | 17071 ft | 388 kts | 53° |
| 2026-05-04 17:36 | 51.76618 | 7.01456 | 17464 ft | 391 kts | 53° |
| 2026-05-04 17:36 | 51.78236 | 7.04998 | 17839 ft | 393 kts | 53° |
| 2026-05-04 17:37 | 51.79861 | 7.08567 | 18198 ft | 396 kts | 53° |
| 2026-05-04 17:37 | 51.81501 | 7.12175 | 18542 ft | 398 kts | 54° |
| 2026-05-04 17:37 | 51.83144 | 7.15796 | 18872 ft | 400 kts | 54° |
| 2026-05-04 17:37 | 51.84799 | 7.19440 | 19189 ft | 403 kts | 53° |
| 2026-05-04 17:38 | 51.86627 | 7.22879 | 19481 ft | 405 kts | 46° |
| 2026-05-04 17:38 | 51.88589 | 7.26172 | 19772 ft | 407 kts | 46° |
| 2026-05-04 17:38 | 51.90556 | 7.29489 | 20053 ft | 409 kts | 46° |
| 2026-05-04 17:38 | 51.92529 | 7.32823 | 20320 ft | 411 kts | 46° |
| 2026-05-04 17:39 | 51.96471 | 7.39505 | 20808 ft | 415 kts | 46° |
| 2026-05-04 17:39 | 51.98468 | 7.42901 | 21034 ft | 416 kts | 46° |
| 2026-05-04 17:39 | 52.00471 | 7.46310 | 21249 ft | 418 kts | 46° |
| 2026-05-04 17:40 | 52.02481 | 7.49735 | 21453 ft | 419 kts | 46° |
| 2026-05-04 17:40 | 52.04498 | 7.53168 | 21646 ft | 421 kts | 45° |
| 2026-05-04 17:40 | 52.06777 | 7.56144 | 21818 ft | 422 kts | 30° |
| 2026-05-04 17:40 | 52.09465 | 7.58043 | 21988 ft | 423 kts | 19° |
| 2026-05-04 17:41 | 52.12256 | 7.59590 | 22160 ft | 424 kts | 18° |
| 2026-05-04 17:41 | 52.15068 | 7.61131 | 22332 ft | 426 kts | 18° |
| 2026-05-04 17:41 | 52.17880 | 7.62661 | 22497 ft | 427 kts | 18° |
| 2026-05-04 17:41 | 52.20705 | 7.64195 | 22656 ft | 428 kts | 18° |
| 2026-05-04 17:42 | 52.23538 | 7.65733 | 22811 ft | 429 kts | 18° |
| 2026-05-04 17:42 | 52.26375 | 7.67278 | 22959 ft | 431 kts | 18° |
| 2026-05-04 17:42 | 52.29220 | 7.68834 | 23100 ft | 432 kts | 18° |
| 2026-05-04 17:42 | 52.32071 | 7.70401 | 23239 ft | 433 kts | 18° |
| 2026-05-04 17:43 | 52.34925 | 7.71976 | 23371 ft | 434 kts | 18° |
| 2026-05-04 17:43 | 52.37756 | 7.73547 | 23497 ft | 435 kts | 19° |
| 2026-05-04 17:43 | 52.40621 | 7.75143 | 23623 ft | 436 kts | 18° |
| 2026-05-04 17:43 | 52.43482 | 7.76736 | 24304 ft | 428 kts | 18° |
| 2026-05-04 17:44 | 52.46265 | 7.78281 | 25109 ft | 418 kts | 18° |
| 2026-05-04 17:44 | 52.49029 | 7.79812 | 25233 ft | 420 kts | 18° |
| 2026-05-04 17:44 | 52.51797 | 7.81348 | 25358 ft | 421 kts | 18° |
| 2026-05-04 17:44 | 52.54567 | 7.82887 | 25483 ft | 421 kts | 18° |
| 2026-05-04 17:45 | 52.57349 | 7.84434 | 25609 ft | 422 kts | 18° |
| 2026-05-04 17:45 | 52.60137 | 7.85989 | 25874 ft | 424 kts | 18° |
| 2026-05-04 17:45 | 52.62925 | 7.87547 | 26344 ft | 422 kts | 18° |
| 2026-05-04 17:45 | 52.65704 | 7.89100 | 26467 ft | 422 kts | 18° |
| 2026-05-04 17:46 | 52.68491 | 7.90659 | 26592 ft | 423 kts | 18° |
| 2026-05-04 17:46 | 52.71276 | 7.92221 | 26717 ft | 423 kts | 19° |
| 2026-05-04 17:46 | 52.74066 | 7.93789 | 26843 ft | 423 kts | 19° |
| 2026-05-04 17:46 | 52.76855 | 7.95358 | 26971 ft | 425 kts | 18° |
| 2026-05-04 17:47 | 52.79664 | 7.96941 | 27305 ft | 428 kts | 18° |
| 2026-05-04 17:47 | 52.82460 | 7.98522 | 27670 ft | 431 kts | 18° |
| 2026-05-04 17:47 | 52.85295 | 8.00124 | 28030 ft | 433 kts | 18° |
| 2026-05-04 17:47 | 52.88161 | 8.01742 | 28386 ft | 436 kts | 18° |
| 2026-05-04 17:48 | 52.91054 | 8.03383 | 28734 ft | 438 kts | 18° |
| 2026-05-04 17:48 | 52.93941 | 8.05027 | 29078 ft | 440 kts | 18° |
| 2026-05-04 17:48 | 52.96844 | 8.06681 | 29406 ft | 442 kts | 18° |
| 2026-05-04 17:48 | 52.99765 | 8.08343 | 29724 ft | 445 kts | 18° |
| 2026-05-04 17:49 | 53.02696 | 8.10010 | 30034 ft | 447 kts | 18° |
| 2026-05-04 17:49 | 53.05644 | 8.11690 | 30327 ft | 449 kts | 18° |
| 2026-05-04 17:49 | 53.08603 | 8.13380 | 30613 ft | 451 kts | 18° |
| 2026-05-04 17:49 | 53.11577 | 8.15085 | 30896 ft | 453 kts | 18° |
| 2026-05-04 17:50 | 53.14557 | 8.16796 | 31137 ft | 453 kts | 19° |
| 2026-05-04 17:50 | 53.17552 | 8.18514 | 31347 ft | 456 kts | 18° |
| 2026-05-04 17:50 | 53.20554 | 8.20240 | 31635 ft | 457 kts | 18° |
| 2026-05-04 17:50 | 53.23561 | 8.21972 | 32028 ft | 456 kts | 18° |
| 2026-05-04 17:51 | 53.26554 | 8.23697 | 32402 ft | 455 kts | 18° |
| 2026-05-04 17:51 | 53.29544 | 8.25422 | 32766 ft | 454 kts | 18° |
| 2026-05-04 17:51 | 53.32529 | 8.27145 | 33121 ft | 453 kts | 18° |
| 2026-05-04 17:51 | 53.35505 | 8.28868 | 33470 ft | 452 kts | 19° |
| 2026-05-04 17:52 | 53.38442 | 8.30573 | 33812 ft | 452 kts | 19° |
| 2026-05-04 17:52 | 53.41448 | 8.32322 | 34159 ft | 451 kts | 19° |
| 2026-05-04 17:52 | 53.44372 | 8.34023 | 34495 ft | 450 kts | 19° |
| 2026-05-04 17:52 | 53.47330 | 8.35747 | 34818 ft | 450 kts | 19° |
| 2026-05-04 17:53 | 53.50287 | 8.37471 | 35134 ft | 449 kts | 19° |
| 2026-05-04 17:53 | 53.53242 | 8.39195 | 35438 ft | 449 kts | 19° |
| 2026-05-04 17:53 | 53.56186 | 8.40913 | 35726 ft | 448 kts | 19° |
| 2026-05-04 17:53 | 53.59129 | 8.42632 | 36007 ft | 447 kts | 19° |
| 2026-05-04 17:54 | 53.62067 | 8.44355 | 36271 ft | 447 kts | 19° |
| 2026-05-04 17:54 | 53.64995 | 8.46075 | 36516 ft | 447 kts | 19° |
| 2026-05-04 17:54 | 53.67910 | 8.47794 | 36751 ft | 447 kts | 19° |
| 2026-05-04 17:54 | 53.70789 | 8.49496 | 36947 ft | 447 kts | 19° |
| 2026-05-04 17:55 | 53.76731 | 8.53014 | 37009 ft | 445 kts | 19° |
| 2026-05-04 17:55 | 53.82564 | 8.56471 | 37009 ft | 444 kts | 19° |
| 2026-05-04 17:56 | 53.88391 | 8.59928 | 37009 ft | 444 kts | 19° |
| 2026-05-04 17:56 | 53.94214 | 8.63393 | 37009 ft | 444 kts | 19° |
| 2026-05-04 17:57 | 54.00025 | 8.66867 | 37006 ft | 439 kts | 19° |
| 2026-05-04 17:57 | 54.05800 | 8.70339 | 37009 ft | 442 kts | 19° |
| 2026-05-04 17:58 | 54.11567 | 8.73799 | 37009 ft | 443 kts | 19° |
| 2026-05-04 17:58 | 54.17353 | 8.77283 | 37009 ft | 443 kts | 19° |
| 2026-05-04 17:59 | 54.23168 | 8.80794 | 37009 ft | 443 kts | 19° |
| 2026-05-04 18:00 | 54.31934 | 8.86121 | 37010 ft | 443 kts | 19° |
| 2026-05-04 18:00 | 54.37712 | 8.89654 | 37010 ft | 443 kts | 19° |
| 2026-05-04 18:01 | 54.43524 | 8.93209 | 37009 ft | 443 kts | 19° |
| 2026-05-04 18:01 | 54.49344 | 8.96767 | 37008 ft | 443 kts | 19° |
| 2026-05-04 18:02 | 54.58058 | 9.02128 | 37008 ft | 443 kts | 19° |
| 2026-05-04 18:02 | 54.63866 | 9.05734 | 37008 ft | 443 kts | 20° |
| 2026-05-04 18:03 | 54.69553 | 9.09858 | 37008 ft | 443 kts | 24° |
| 2026-05-04 18:03 | 54.75133 | 9.14413 | 37009 ft | 444 kts | 25° |
| 2026-05-04 18:04 | 54.80725 | 9.18960 | 37010 ft | 444 kts | 24° |
| 2026-05-04 18:05 | 54.89175 | 9.25592 | 37011 ft | 444 kts | 24° |
| 2026-05-04 18:05 | 54.94806 | 9.29996 | 37010 ft | 444 kts | 24° |
| 2026-05-04 18:06 | 55.03198 | 9.36646 | 37008 ft | 444 kts | 24° |
| 2026-05-04 18:06 | 55.08813 | 9.41119 | 37006 ft | 443 kts | 24° |
| 2026-05-04 18:07 | 55.14434 | 9.45603 | 37004 ft | 443 kts | 24° |
| 2026-05-04 18:07 | 55.20053 | 9.50094 | 37004 ft | 443 kts | 24° |
| 2026-05-04 18:08 | 55.25658 | 9.54594 | 37003 ft | 443 kts | 24° |
| 2026-05-04 18:08 | 55.31230 | 9.59078 | 37003 ft | 443 kts | 24° |
| 2026-05-04 18:09 | 55.42450 | 9.68166 | 37006 ft | 443 kts | 24° |
| 2026-05-04 18:10 | 55.48037 | 9.72699 | 37008 ft | 444 kts | 24° |
| 2026-05-04 18:10 | 55.52735 | 9.76531 | 37011 ft | 444 kts | 25° |
| 2026-05-04 18:11 | 55.58293 | 9.81079 | 37013 ft | 444 kts | 25° |
| 2026-05-04 18:11 | 55.63916 | 9.85688 | 37015 ft | 444 kts | 25° |
| 2026-05-04 18:12 | 55.69523 | 9.90292 | 37015 ft | 444 kts | 25° |
| 2026-05-04 18:12 | 55.75136 | 9.94921 | 37014 ft | 444 kts | 25° |
| 2026-05-04 18:13 | 55.80735 | 9.99559 | 37016 ft | 444 kts | 25° |
| 2026-05-04 18:14 | 55.89134 | 10.06552 | 37019 ft | 444 kts | 25° |
| 2026-05-04 18:14 | 55.94746 | 10.11226 | 37019 ft | 444 kts | 25° |
| 2026-05-04 18:15 | 56.05953 | 10.20621 | 37021 ft | 445 kts | 25° |
| 2026-05-04 18:16 | 56.11383 | 10.25754 | 37022 ft | 445 kts | 31° |
| 2026-05-04 18:16 | 56.16673 | 10.31541 | 37024 ft | 445 kts | 31° |
| 2026-05-04 18:17 | 56.24557 | 10.40365 | 37024 ft | 445 kts | 32° |
| 2026-05-04 18:18 | 56.32460 | 10.49162 | 37024 ft | 445 kts | 31° |
| 2026-05-04 18:18 | 56.37723 | 10.55034 | 36956 ft | 445 kts | 31° |
| 2026-05-04 18:18 | 56.40352 | 10.57980 | 36706 ft | 444 kts | 32° |
| 2026-05-04 18:19 | 56.45598 | 10.63872 | 36205 ft | 444 kts | 31° |
| 2026-05-04 18:19 | 56.48222 | 10.66816 | 35956 ft | 444 kts | 31° |
| 2026-05-04 18:19 | 56.50841 | 10.69756 | 35481 ft | 443 kts | 31° |
| 2026-05-04 18:20 | 56.53458 | 10.72699 | 34765 ft | 444 kts | 32° |
| 2026-05-04 18:20 | 56.56110 | 10.75692 | 33615 ft | 455 kts | 32° |
| 2026-05-04 18:20 | 56.58829 | 10.78772 | 32483 ft | 466 kts | 32° |
| 2026-05-04 18:20 | 56.61587 | 10.81899 | 31672 ft | 467 kts | 32° |
| 2026-05-04 18:21 | 56.64346 | 10.85031 | 31027 ft | 464 kts | 32° |
| 2026-05-04 18:21 | 56.67069 | 10.88125 | 30440 ft | 460 kts | 32° |
| 2026-05-04 18:21 | 56.69767 | 10.91195 | 29872 ft | 455 kts | 32° |
| 2026-05-04 18:21 | 56.72439 | 10.94244 | 29310 ft | 450 kts | 32° |
| 2026-05-04 18:22 | 56.75077 | 10.97267 | 28748 ft | 446 kts | 32° |
| 2026-05-04 18:22 | 56.77684 | 11.00263 | 28188 ft | 441 kts | 32° |
| 2026-05-04 18:22 | 56.80264 | 11.03228 | 27628 ft | 436 kts | 32° |
| 2026-05-04 18:22 | 56.82820 | 11.06163 | 27069 ft | 432 kts | 32° |
| 2026-05-04 18:23 | 56.85348 | 11.09068 | 26512 ft | 427 kts | 32° |
| 2026-05-04 18:23 | 56.87849 | 11.11951 | 25963 ft | 423 kts | 32° |
| 2026-05-04 18:23 | 56.90290 | 11.14774 | 25424 ft | 418 kts | 32° |
| 2026-05-04 18:23 | 56.92740 | 11.17606 | 24874 ft | 414 kts | 32° |
| 2026-05-04 18:24 | 56.95164 | 11.20411 | 24332 ft | 410 kts | 32° |
| 2026-05-04 18:24 | 56.97562 | 11.23191 | 23797 ft | 406 kts | 32° |
| 2026-05-04 18:24 | 56.99942 | 11.25957 | 23274 ft | 402 kts | 32° |
| 2026-05-04 18:24 | 57.02294 | 11.28696 | 22762 ft | 398 kts | 32° |
| 2026-05-04 18:25 | 57.04623 | 11.31409 | 22263 ft | 395 kts | 32° |
| 2026-05-04 18:25 | 57.06930 | 11.34100 | 21774 ft | 391 kts | 32° |
| 2026-05-04 18:25 | 57.09217 | 11.36774 | 21292 ft | 388 kts | 32° |
| 2026-05-04 18:25 | 57.11481 | 11.39427 | 20815 ft | 384 kts | 32° |
| 2026-05-04 18:26 | 57.13729 | 11.42063 | 20344 ft | 381 kts | 32° |
| 2026-05-04 18:26 | 57.15958 | 11.44665 | 19879 ft | 378 kts | 32° |
| 2026-05-04 18:26 | 57.18169 | 11.47245 | 19415 ft | 375 kts | 32° |
| 2026-05-04 18:26 | 57.20332 | 11.49786 | 18959 ft | 372 kts | 32° |
| 2026-05-04 18:27 | 57.22504 | 11.52349 | 18499 ft | 368 kts | 32° |
| 2026-05-04 18:27 | 57.24655 | 11.54889 | 18046 ft | 366 kts | 32° |
| 2026-05-04 18:27 | 57.26789 | 11.57413 | 17600 ft | 363 kts | 32° |
| 2026-05-04 18:27 | 57.28903 | 11.59919 | 17162 ft | 360 kts | 32° |
| 2026-05-04 18:28 | 57.31004 | 11.62408 | 16733 ft | 357 kts | 32° |
| 2026-05-04 18:28 | 57.33087 | 11.64877 | 16312 ft | 354 kts | 32° |
| 2026-05-04 18:28 | 57.35153 | 11.67332 | 15900 ft | 352 kts | 32° |
| 2026-05-04 18:28 | 57.37201 | 11.69773 | 15427 ft | 348 kts | 33° |
| 2026-05-04 18:29 | 57.39224 | 11.72193 | 14827 ft | 345 kts | 33° |
| 2026-05-04 18:29 | 57.41220 | 11.74586 | 14186 ft | 340 kts | 33° |
| 2026-05-04 18:29 | 57.43201 | 11.76962 | 13524 ft | 337 kts | 33° |
| 2026-05-04 18:29 | 57.45155 | 11.79311 | 12868 ft | 333 kts | 33° |
| 2026-05-04 18:30 | 57.48999 | 11.83926 | 11560 ft | 325 kts | 33° |
| 2026-05-04 18:30 | 57.50891 | 11.86196 | 10905 ft | 321 kts | 33° |
| 2026-05-04 18:30 | 57.52768 | 11.88453 | 10417 ft | 321 kts | 33° |
| 2026-05-04 18:31 | 57.54633 | 11.90694 | 10029 ft | 318 kts | 33° |
| 2026-05-04 18:31 | 57.56463 | 11.92897 | 9850 ft | 308 kts | 33° |
| 2026-05-04 18:31 | 57.58213 | 11.95009 | 9619 ft | 300 kts | 33° |
| 2026-05-04 18:31 | 57.59961 | 11.97126 | 9272 ft | 297 kts | 33° |
| 2026-05-04 18:32 | 57.61689 | 11.99222 | 8900 ft | 295 kts | 33° |
| 2026-05-04 18:32 | 57.63407 | 12.01306 | 8518 ft | 293 kts | 33° |
| 2026-05-04 18:32 | 57.65107 | 12.03376 | 8132 ft | 291 kts | 33° |
| 2026-05-04 18:32 | 57.66799 | 12.05438 | 7996 ft | 290 kts | 33° |
| 2026-05-04 18:33 | 57.68493 | 12.07500 | 8007 ft | 291 kts | 33° |
| 2026-05-04 18:33 | 57.70197 | 12.09570 | 8009 ft | 291 kts | 33° |
| 2026-05-04 18:33 | 57.71829 | 12.11555 | 8009 ft | 291 kts | 33° |
| 2026-05-04 18:33 | 57.73531 | 12.13628 | 8009 ft | 291 kts | 33° |
| 2026-05-04 18:34 | 57.75229 | 12.15702 | 8009 ft | 291 kts | 33° |
| 2026-05-04 18:34 | 57.76926 | 12.17778 | 8009 ft | 291 kts | 33° |
| 2026-05-04 18:34 | 57.78622 | 12.19857 | 8009 ft | 292 kts | 33° |
| 2026-05-04 18:34 | 57.80301 | 12.21918 | 7789 ft | 292 kts | 32° |
| 2026-05-04 18:35 | 57.82101 | 12.23787 | 7292 ft | 291 kts | 27° |
| 2026-05-04 18:35 | 57.83822 | 12.25486 | 7071 ft | 275 kts | 27° |
| 2026-05-04 18:35 | 57.85367 | 12.27481 | 6652 ft | 267 kts | 45° |
| 2026-05-04 18:35 | 57.86428 | 12.30277 | 6115 ft | 263 kts | 66° |
| 2026-05-04 18:36 | 57.86902 | 12.33554 | 5559 ft | 260 kts | 86° |
| 2026-05-04 18:36 | 57.86765 | 12.36914 | 4982 ft | 256 kts | 108° |
| 2026-05-04 18:36 | 57.85869 | 12.39733 | 4427 ft | 252 kts | 137° |
| 2026-05-04 18:36 | 57.84364 | 12.41324 | 3949 ft | 248 kts | 164° |
| 2026-05-04 18:37 | 57.82694 | 12.41797 | 3678 ft | 236 kts | 181° |
| 2026-05-04 18:37 | 57.81133 | 12.41379 | 3413 ft | 220 kts | 197° |
| 2026-05-04 18:37 | 57.79764 | 12.40308 | 3144 ft | 208 kts | 206° |
| 2026-05-04 18:37 | 57.78517 | 12.39164 | 2896 ft | 191 kts | 206° |
| 2026-05-04 18:38 | 57.77370 | 12.38114 | 2643 ft | 176 kts | 206° |
| 2026-05-04 18:38 | 57.76311 | 12.37144 | 2409 ft | 163 kts | 206° |
| 2026-05-04 18:38 | 57.75345 | 12.36259 | 2208 ft | 148 kts | 206° |
| 2026-05-04 18:38 | 57.74442 | 12.35432 | 2015 ft | 142 kts | 206° |
| 2026-05-04 18:39 | 57.73565 | 12.34630 | 1829 ft | 139 kts | 206° |
| 2026-05-04 18:39 | 57.72693 | 12.33833 | 1645 ft | 138 kts | 207° |
| 2026-05-04 18:39 | 57.71832 | 12.33046 | 1462 ft | 138 kts | 206° |
| 2026-05-04 18:39 | 57.70974 | 12.32261 | 1280 ft | 137 kts | 206° |
| 2026-05-04 18:40 | 57.70119 | 12.31475 | 1091 ft | 137 kts | 207° |
| 2026-05-04 18:40 | 57.69233 | 12.30651 | 1233 ft | 154 kts | 207° |
| 2026-05-04 18:40 | 57.68178 | 12.29657 | 1802 ft | 186 kts | 207° |
| 2026-05-04 18:40 | 57.66969 | 12.28504 | 2201 ft | 205 kts | 207° |
| 2026-05-04 18:41 | 57.65687 | 12.27317 | 2345 ft | 202 kts | 206° |
| 2026-05-04 18:41 | 57.64418 | 12.26153 | 2572 ft | 213 kts | 206° |
| 2026-05-04 18:41 | 57.63053 | 12.24899 | 2641 ft | 215 kts | 206° |
| 2026-05-04 18:41 | 57.61851 | 12.23354 | 2644 ft | 213 kts | 231° |
| 2026-05-04 18:42 | 57.61293 | 12.20802 | 2650 ft | 213 kts | 267° |
| 2026-05-04 18:42 | 57.61577 | 12.18145 | 2654 ft | 215 kts | 291° |
| 2026-05-04 18:42 | 57.62184 | 12.15595 | 2654 ft | 215 kts | 295° |
| 2026-05-04 18:42 | 57.62833 | 12.13075 | 2652 ft | 215 kts | 295° |
| 2026-05-04 18:43 | 57.63486 | 12.10558 | 2651 ft | 215 kts | 295° |
| 2026-05-04 18:43 | 57.64261 | 12.08179 | 2642 ft | 216 kts | 316° |
| 2026-05-04 18:43 | 57.65574 | 12.06895 | 2648 ft | 217 kts | 351° |
| 2026-05-04 18:43 | 57.67052 | 12.07208 | 2655 ft | 218 kts | 19° |
| 2026-05-04 18:44 | 57.68452 | 12.08305 | 2654 ft | 219 kts | 25° |
| 2026-05-04 18:44 | 57.68920 | 12.08710 | 2653 ft | 219 kts | 25° |
| 2026-05-04 18:44 | 57.71211 | 12.10736 | 2651 ft | 219 kts | 25° |
| 2026-05-04 18:44 | 57.72583 | 12.11957 | 2651 ft | 219 kts | 25° |
| 2026-05-04 18:45 | 57.73958 | 12.13181 | 2651 ft | 219 kts | 25° |
| 2026-05-04 18:45 | 57.75335 | 12.14409 | 2651 ft | 219 kts | 25° |
| 2026-05-04 18:45 | 57.76697 | 12.15689 | 2648 ft | 219 kts | 34° |
| 2026-05-04 18:45 | 57.77859 | 12.17522 | 2652 ft | 219 kts | 44° |
| 2026-05-04 18:46 | 57.78943 | 12.19525 | 2679 ft | 218 kts | 45° |
| 2026-05-04 18:46 | 57.80013 | 12.21545 | 2905 ft | 219 kts | 45° |
| 2026-05-04 18:46 | 57.81092 | 12.23588 | 3081 ft | 221 kts | 45° |
| 2026-05-04 18:46 | 57.82174 | 12.25640 | 3121 ft | 221 kts | 45° |
| 2026-05-04 18:47 | 57.83245 | 12.27719 | 3121 ft | 221 kts | 51° |
| 2026-05-04 18:47 | 57.83840 | 12.30305 | 3120 ft | 219 kts | 86° |
| 2026-05-04 18:47 | 57.83550 | 12.33060 | 3123 ft | 218 kts | 121° |
| 2026-05-04 18:47 | 57.82482 | 12.34992 | 3124 ft | 216 kts | 156° |
| 2026-05-04 18:48 | 57.81035 | 12.35677 | 3130 ft | 216 kts | 173° |
| 2026-05-04 18:48 | 57.79545 | 12.35987 | 3126 ft | 216 kts | 175° |
| 2026-05-04 18:48 | 57.78044 | 12.36250 | 3073 ft | 217 kts | 175° |
| 2026-05-04 18:48 | 57.76561 | 12.36493 | 2822 ft | 215 kts | 178° |
| 2026-05-04 18:49 | 57.75102 | 12.36034 | 2553 ft | 214 kts | 203° |
| 2026-05-04 18:49 | 57.73755 | 12.34836 | 2134 ft | 214 kts | 207° |
| 2026-05-04 18:49 | 57.72439 | 12.33607 | 1694 ft | 211 kts | 207° |
| 2026-05-04 18:49 | 57.71160 | 12.32431 | 1346 ft | 197 kts | 206° |
| 2026-05-04 18:50 | 57.69974 | 12.31348 | 1080 ft | 180 kts | 206° |
| 2026-05-04 18:50 | 57.68921 | 12.30387 | 848 ft | 158 kts | 206° |
| 2026-05-04 18:50 | 57.67982 | 12.29533 | 637 ft | 143 kts | 206° |
| 2026-05-04 18:50 | 57.67109 | 12.28731 | 527 ft | 133 kts | 207° |
| 2026-05-04 18:51 | 57.66384 | 12.28068 | 511 ft | 92 kts | 206° |
| 2026-05-04 18:51 | 57.65960 | 12.27679 | 507 ft | 50 kts | 206° |
| 2026-05-04 18:51 | 57.65655 | 12.27407 | 502 ft | 49 kts | 205° |
| 2026-05-04 18:51 | 57.65353 | 12.27134 | 496 ft | 41 kts | 206° |
| 2026-05-04 18:52 | 57.65155 | 12.26974 | 492 ft | 26 kts | 182° |
| 2026-05-04 18:52 | 57.65015 | 12.27095 | 491 ft | 17 kts | 111° |
| 2026-05-04 18:52 | 57.65095 | 12.27244 | 493 ft | 19 kts | 26° |
| 2026-05-04 18:52 | 57.65217 | 12.27354 | 495 ft | 20 kts | 26° |
| 2026-05-04 18:53 | 57.65343 | 12.27471 | 498 ft | 21 kts | 26° |
| 2026-05-04 18:53 | 57.65469 | 12.27582 | 500 ft | 20 kts | 24° |
| 2026-05-04 18:53 | 57.65526 | 12.27634 | 501 ft | 7 kts | 26° |
| 2026-05-04 18:53 | 57.65562 | 12.27669 | 502 ft | 7 kts | 27° |
| 2026-05-04 18:54 | 57.65627 | 12.27729 | 503 ft | 14 kts | 26° |
| 2026-05-04 18:54 | 57.65715 | 12.27811 | 505 ft | 13 kts | 26° |
| 2026-05-04 18:54 | 57.65791 | 12.27880 | 506 ft | 13 kts | 26° |
| 2026-05-04 18:54 | 57.65904 | 12.27983 | 507 ft | 22 kts | 26° |
| 2026-05-04 18:55 | 57.66047 | 12.28110 | 509 ft | 23 kts | 26° |
| 2026-05-04 18:55 | 57.66361 | 12.28396 | 511 ft | 27 kts | 26° |
| 2026-05-04 18:55 | 57.66532 | 12.28550 | 512 ft | 27 kts | 26° |
| 2026-05-04 18:56 | 57.66690 | 12.28695 | 512 ft | 22 kts | 26° |
| 2026-05-04 18:56 | 57.66805 | 12.28801 | 513 ft | 15 kts | 33° |
| 2026-05-04 18:56 | 57.66816 | 12.28946 | 516 ft | 10 kts | 117° |
| 2026-05-04 18:56 | 57.66795 | 12.29021 | 516 ft | 9 kts | 116° |
| 2026-05-04 18:57 | 57.66769 | 12.29121 | 516 ft | 8 kts | 117° |
| 2026-05-04 18:57 | 57.66745 | 12.29204 | 516 ft | 6 kts | 116° |
| 2026-05-04 18:57 | 57.66732 | 12.29251 | 516 ft | 2 kts | 116° |
| 2026-05-04 18:57 | 57.66729 | 12.29263 | 516 ft | 1 kts | 116° |
| 2026-05-04 18:58 | 57.66728 | 12.29266 | 516 ft | 0 kts | 116° |